KMHKKLHX

Guest
Details From KMHK - MANHATTAN RGNL
To KLHX - LA JUNTA MUNI
Flight Number -
Tags generated
Created
Modified
Stats Distance 328 nm / 607 km
Max Altitude 18,000 ft / 5,486 m
Waypoints 4
Social Downloads 0
Likes 0
Share VATSIM

Download

Looking for another format? Having issues loading an existing format? Contact us
Advertisement - Login to hide

Notes

Basic altitude profile: - Ascent Rate: 700ft/min - Ascent Speed: 70kts - Cruise Altitude: 10000ft - Cruise Speed: 110kts - Descent Rate: 700ft/min - Descent Speed: 110kts Options: - Use NATs: yes - Use PACOTS: yes - Use low airways: yes - Use high airways: yes

Route

KMHK SLN J102 RYLIE KLHX

ID Type Via Altitude Latitude Longitude Leg Dist Tot Dist Heading (true) Name
O KMHK APT - 0 ft / 0 m 39.14147˚ -96.67060˚ - 0 nm - MANHATTAN RGNL
SLN VOR - 16,500 ft / 5,029 m 38.92514˚ -97.62136˚ 46 nm 46 nm 254° / 253° SALINA VORTAC
RYLIE FIX J102 (AWY-HI) 18,000 ft / 5,486 m 38.33731˚ -101.82748˚ 200 nm 246 nm 261° / 259° -
O KLHX APT - 0 ft / 0 m 38.04986˚ -103.50925˚ 81 nm 327 nm 258° / 257° LA JUNTA MUNI

Altitude Profile

Advertisement - Login to hide

Weather


0- 5 10 15 20 25 30 35+ Temperature / ° C

Clouds and Precipitation
Forecast for 2017-12-15 12:00 UTC. Updated an hour ago

Ground ~20,000 ft ~40,000 ft Winds

KMHK

Details ICAO KMHK (MHK)
Name MANHATTAN RGNL
Region United States
Timezone America/Chicago (UTC-6.0)
Stats Elevation 1,057 ft / 322 m (AMSL)
Location 39.141466° -96.670598°
Runways 2
Magnetic Variation 3.132° E

METAR

KMHK 150952Z AUTO 28005KT 9SM CLR M01/M03 A3019 RMK AO2 SLP231 T10061028

Decode

TAF

TAF KMHK 150526Z 1506/1606 30006KT P6SM SCT020 BKN050 FM150900 27005KT P6SM SCT200 FM151900 23012KT P6SM FEW250

Decode

Departure Runways

ID Width Length Bearing (true) Bearing (mag) Surface Threshold Offset Overrun Length
03 150 ft / 46 m 7,001 ft / 2,134 m 39.79° 36.66° Concrete 0 ft / 0 m 0 ft / 0 m
13 100 ft / 30 m 3,801 ft / 1,159 m 142.32° 139.19° Asphalt 0 ft / 0 m 0 ft / 0 m
21 150 ft / 46 m 7,001 ft / 2,134 m 219.80° 216.67° Concrete 0 ft / 0 m 0 ft / 0 m
31 100 ft / 30 m 3,801 ft / 1,159 m 322.33° 319.20° Asphalt 0 ft / 0 m 0 ft / 0 m

KLHX

Details ICAO KLHX (LHX)
Name LA JUNTA MUNI
Region United States
Timezone America/Denver (UTC-7.0)
Stats Elevation 4,238 ft / 1,292 m (AMSL)
Location 38.049862° -103.509245°
Runways 2
Magnetic Variation 7.304° E

METAR

KLHX 150953Z AUTO 28007KT 10SM CLR M06/M07 A3020 RMK AO2 SLP243 T10561067 TSNO $

Decode

TAF

Not found

Destination Runways

ID Width Length Bearing (true) Bearing (mag) Surface Threshold Offset Overrun Length
08 75 ft / 23 m 6,834 ft / 2,083 m 89.80° 82.50° Asphalt 0 ft / 0 m 0 ft / 0 m
12 60 ft / 18 m 5,800 ft / 1,768 m 135.34° 128.04° Asphalt 0 ft / 0 m 0 ft / 0 m
26 75 ft / 23 m 6,834 ft / 2,083 m 269.81° 262.51° Asphalt 0 ft / 0 m 0 ft / 0 m
30 60 ft / 18 m 5,800 ft / 1,768 m 315.35° 308.05° Asphalt 0 ft / 0 m 0 ft / 0 m